sensor_id;sensor_type;location;lat;lon;timestamp;pressure;altitude;pressure_sealevel;temperature;humidity
4745;BME280;2386;42.138;24.746;2024-03-08T00:02:23;99807.06;;;9.11;100.00
4745;BME280;2386;42.138;24.746;2024-03-08T00:04:48;99799.34;;;9.15;100.00
4745;BME280;2386;42.138;24.746;2024-03-08T00:07:13;99797.63;;;9.20;100.00
4745;BME280;2386;42.138;24.746;2024-03-08T00:09:39;99798.50;;;9.14;100.00
4745;BME280;2386;42.138;24.746;2024-03-08T00:12:04;99795.84;;;9.39;100.00
4745;BME280;2386;42.138;24.746;2024-03-08T00:14:31;99788.13;;;9.43;100.00
4745;BME280;2386;42.138;24.746;2024-03-08T00:16:57;99788.56;;;9.40;100.00
4745;BME280;2386;42.138;24.746;2024-03-08T00:19:22;99800.53;;;9.26;100.00
4745;BME280;2386;42.138;24.746;2024-03-08T00:21:48;99785.75;;;9.21;100.00
4745;BME280;2386;42.138;24.746;2024-03-08T00:24:13;99785.63;;;9.41;100.00
4745;BME280;2386;42.138;24.746;2024-03-08T00:26:39;99785.28;;;9.31;100.00
4745;BME280;2386;42.138;24.746;2024-03-08T00:29:04;99791.09;;;9.35;100.00
4745;BME280;2386;42.138;24.746;2024-03-08T00:31:30;99782.75;;;9.36;100.00
4745;BME280;2386;42.138;24.746;2024-03-08T00:33:57;99789.09;;;9.23;100.00
4745;BME280;2386;42.138;24.746;2024-03-08T00:36:23;99785.03;;;9.39;100.00
4745;BME280;2386;42.138;24.746;2024-03-08T00:38:48;99789.22;;;9.35;100.00
4745;BME280;2386;42.138;24.746;2024-03-08T00:41:13;99788.38;;;9.03;100.00
4745;BME280;2386;42.138;24.746;2024-03-08T00:43:39;99793.34;;;9.06;100.00
4745;BME280;2386;42.138;24.746;2024-03-08T00:46:04;99794.88;;;9.27;100.00
4745;BME280;2386;42.138;24.746;2024-03-08T00:48:29;99787.69;;;9.14;100.00
4745;BME280;2386;42.138;24.746;2024-03-08T00:50:56;99793.88;;;9.21;100.00
4745;BME280;2386;42.138;24.746;2024-03-08T00:53:21;99784.94;;;9.21;100.00
4745;BME280;2386;42.138;24.746;2024-03-08T00:55:47;99783.72;;;9.17;100.00
4745;BME280;2386;42.138;24.746;2024-03-08T00:58:13;99783.94;;;9.15;100.00
4745;BME280;2386;42.138;24.746;2024-03-08T01:00:39;99777.03;;;9.19;100.00
4745;BME280;2386;42.138;24.746;2024-03-08T01:03:05;99778.28;;;9.17;100.00
4745;BME280;2386;42.138;24.746;2024-03-08T01:05:30;99778.34;;;9.10;100.00
4745;BME280;2386;42.138;24.746;2024-03-08T01:07:56;99777.03;;;9.19;100.00
4745;BME280;2386;42.138;24.746;2024-03-08T01:10:21;99771.97;;;9.30;100.00
4745;BME280;2386;42.138;24.746;2024-03-08T01:12:47;99779.09;;;9.24;100.00
4745;BME280;2386;42.138;24.746;2024-03-08T01:15:12;99776.59;;;9.22;100.00
4745;BME280;2386;42.138;24.746;2024-03-08T01:17:37;99769.22;;;9.36;100.00
4745;BME280;2386;42.138;24.746;2024-03-08T01:20:04;99770.31;;;9.29;100.00
4745;BME280;2386;42.138;24.746;2024-03-08T01:22:30;99771.56;;;9.26;100.00
4745;BME280;2386;42.138;24.746;2024-03-08T01:24:56;99772.09;;;9.41;100.00
4745;BME280;2386;42.138;24.746;2024-03-08T01:27:21;99776.25;;;9.44;100.00
4745;BME280;2386;42.138;24.746;2024-03-08T01:29:47;99775.28;;;9.32;100.00
4745;BME280;2386;42.138;24.746;2024-03-08T01:32:13;99780.53;;;9.27;100.00
4745;BME280;2386;42.138;24.746;2024-03-08T01:34:38;99779.91;;;9.25;100.00
4745;BME280;2386;42.138;24.746;2024-03-08T01:37:04;99772.91;;;9.10;100.00
4745;BME280;2386;42.138;24.746;2024-03-08T01:39:29;99785.38;;;9.18;100.00
4745;BME280;2386;42.138;24.746;2024-03-08T01:41:54;99787.91;;;9.13;100.00
4745;BME280;2386;42.138;24.746;2024-03-08T01:44:20;99783.31;;;9.13;100.00
4745;BME280;2386;42.138;24.746;2024-03-08T01:46:47;99790.81;;;9.11;100.00
4745;BME280;2386;42.138;24.746;2024-03-08T01:49:13;99784.09;;;9.20;100.00
4745;BME280;2386;42.138;24.746;2024-03-08T01:51:41;99790.22;;;9.41;100.00
4745;BME280;2386;42.138;24.746;2024-03-08T01:54:07;99789.03;;;9.30;100.00
4745;BME280;2386;42.138;24.746;2024-03-08T01:56:36;99784.09;;;9.20;100.00
4745;BME280;2386;42.138;24.746;2024-03-08T01:59:03;99786.81;;;9.20;100.00
4745;BME280;2386;42.138;24.746;2024-03-08T02:01:28;99783.97;;;9.09;100.00
4745;BME280;2386;42.138;24.746;2024-03-08T02:03:54;99781.72;;;8.99;100.00
4745;BME280;2386;42.138;24.746;2024-03-08T02:06:19;99780.75;;;9.25;100.00
4745;BME280;2386;42.138;24.746;2024-03-08T02:08:45;99791.50;;;9.00;100.00
4745;BME280;2386;42.138;24.746;2024-03-08T02:11:12;99789.22;;;8.97;100.00
4745;BME280;2386;42.138;24.746;2024-03-08T02:13:38;99778.00;;;8.94;100.00
4745;BME280;2386;42.138;24.746;2024-03-08T02:16:04;99778.41;;;8.97;100.00
4745;BME280;2386;42.138;24.746;2024-03-08T02:18:30;99781.50;;;9.01;100.00
4745;BME280;2386;42.138;24.746;2024-03-08T02:20:57;99782.09;;;9.09;100.00
4745;BME280;2386;42.138;24.746;2024-03-08T02:23:23;99782.00;;;9.22;100.00
4745;BME280;2386;42.138;24.746;2024-03-08T02:25:50;99787.41;;;9.22;100.00
4745;BME280;2386;42.138;24.746;2024-03-08T02:28:16;99781.69;;;9.06;100.00
4745;BME280;2386;42.138;24.746;2024-03-08T02:30:44;99784.59;;;9.04;100.00
4745;BME280;2386;42.138;24.746;2024-03-08T02:33:09;99783.38;;;9.00;100.00
4745;BME280;2386;42.138;24.746;2024-03-08T02:35:35;99784.44;;;8.99;100.00
4745;BME280;2386;42.138;24.746;2024-03-08T02:38:02;99789.84;;;8.99;100.00
4745;BME280;2386;42.138;24.746;2024-03-08T02:40:28;99791.69;;;9.05;100.00
4745;BME280;2386;42.138;24.746;2024-03-08T02:42:54;99787.00;;;8.87;100.00
4745;BME280;2386;42.138;24.746;2024-03-08T02:45:19;99794.31;;;8.87;100.00
4745;BME280;2386;42.138;24.746;2024-03-08T02:47:45;99791.75;;;8.92;100.00
4745;BME280;2386;42.138;24.746;2024-03-08T02:50:11;99793.78;;;9.03;100.00
4745;BME280;2386;42.138;24.746;2024-03-08T02:52:37;99796.41;;;9.16;100.00
4745;BME280;2386;42.138;24.746;2024-03-08T02:55:02;99795.88;;;9.01;100.00
4745;BME280;2386;42.138;24.746;2024-03-08T02:57:28;99799.19;;;9.03;100.00
4745;BME280;2386;42.138;24.746;2024-03-08T02:59:54;99799.34;;;9.15;100.00
4745;BME280;2386;42.138;24.746;2024-03-08T03:02:19;99787.28;;;9.11;100.00
4745;BME280;2386;42.138;24.746;2024-03-08T03:04:45;99788.09;;;9.11;100.00
4745;BME280;2386;42.138;24.746;2024-03-08T03:07:10;99789.34;;;9.15;100.00
4745;BME280;2386;42.138;24.746;2024-03-08T03:09:36;99796.19;;;9.18;100.00
4745;BME280;2386;42.138;24.746;2024-03-08T03:12:02;99795.00;;;9.07;100.00
4745;BME280;2386;42.138;24.746;2024-03-08T03:14:28;99799.13;;;9.16;100.00
4745;BME280;2386;42.138;24.746;2024-03-08T03:16:53;99797.53;;;9.02;100.00
4745;BME280;2386;42.138;24.746;2024-03-08T03:19:19;99789.19;;;9.04;100.00
4745;BME280;2386;42.138;24.746;2024-03-08T03:21:45;99799.63;;;9.00;100.00
4745;BME280;2386;42.138;24.746;2024-03-08T03:24:11;99801.41;;;8.81;100.00
4745;BME280;2386;42.138;24.746;2024-03-08T03:26:38;99810.31;;;8.88;100.00
4745;BME280;2386;42.138;24.746;2024-03-08T03:29:07;99813.47;;;8.79;100.00
4745;BME280;2386;42.138;24.746;2024-03-08T03:31:34;99803.88;;;8.83;100.00
4745;BME280;2386;42.138;24.746;2024-03-08T03:33:59;99810.00;;;8.65;100.00
4745;BME280;2386;42.138;24.746;2024-03-08T03:36:28;99817.25;;;8.71;100.00
4745;BME280;2386;42.138;24.746;2024-03-08T03:38:54;99809.19;;;8.51;100.00
4745;BME280;2386;42.138;24.746;2024-03-08T03:41:35;99808.13;;;8.59;100.00
4745;BME280;2386;42.138;24.746;2024-03-08T03:44:00;99811.84;;;8.71;100.00
4745;BME280;2386;42.138;24.746;2024-03-08T03:46:26;99819.91;;;8.84;100.00
4745;BME280;2386;42.138;24.746;2024-03-08T03:48:53;99819.56;;;8.68;100.00
4745;BME280;2386;42.138;24.746;2024-03-08T03:51:19;99814.72;;;8.76;100.00
4745;BME280;2386;42.138;24.746;2024-03-08T03:53:45;99823.09;;;8.68;100.00
4745;BME280;2386;42.138;24.746;2024-03-08T03:56:10;99818.66;;;8.87;100.00
4745;BME280;2386;42.138;24.746;2024-03-08T03:58:36;99828.50;;;8.68;100.00
4745;BME280;2386;42.138;24.746;2024-03-08T04:01:01;99820.63;;;8.60;100.00
4745;BME280;2386;42.138;24.746;2024-03-08T04:03:26;99824.97;;;8.61;100.00
4745;BME280;2386;42.138;24.746;2024-03-08T04:05:52;99825.63;;;8.56;100.00
4745;BME280;2386;42.138;24.746;2024-03-08T04:08:17;99821.88;;;8.57;100.00
4745;BME280;2386;42.138;24.746;2024-03-08T04:10:42;99816.06;;;8.54;100.00
4745;BME280;2386;42.138;24.746;2024-03-08T04:13:08;99823.09;;;8.68;100.00
4745;BME280;2386;42.138;24.746;2024-03-08T04:15:35;99819.97;;;8.65;100.00
4745;BME280;2386;42.138;24.746;2024-03-08T04:18:00;99821.88;;;8.51;100.00
4745;BME280;2386;42.138;24.746;2024-03-08T04:20:26;99827.28;;;8.57;100.00
4745;BME280;2386;42.138;24.746;2024-03-08T04:22:51;99825.63;;;8.50;100.00
4745;BME280;2386;42.138;24.746;2024-03-08T04:25:17;99831.47;;;8.47;100.00
4745;BME280;2386;42.138;24.746;2024-03-08T04:27:42;99824.19;;;8.41;100.00
4745;BME280;2386;42.138;24.746;2024-03-08T04:30:08;99836.63;;;8.55;100.00
4745;BME280;2386;42.138;24.746;2024-03-08T04:32:34;99827.69;;;8.54;100.00
4745;BME280;2386;42.138;24.746;2024-03-08T04:35:00;99834.78;;;8.49;100.00
4745;BME280;2386;42.138;24.746;2024-03-08T04:37:28;99833.97;;;8.35;100.00
4745;BME280;2386;42.138;24.746;2024-03-08T04:39:57;99830.84;;;8.38;100.00
4745;BME280;2386;42.138;24.746;2024-03-08T04:42:23;99837.72;;;8.34;100.00
4745;BME280;2386;42.138;24.746;2024-03-08T04:44:48;99834.81;;;8.42;100.00
4745;BME280;2386;42.138;24.746;2024-03-08T04:47:14;99837.94;;;8.39;100.00
4745;BME280;2386;42.138;24.746;2024-03-08T04:49:39;99837.31;;;8.37;100.00
4745;BME280;2386;42.138;24.746;2024-03-08T04:52:05;99838.75;;;8.46;100.00
4745;BME280;2386;42.138;24.746;2024-03-08T04:54:32;99837.28;;;8.31;100.00
4745;BME280;2386;42.138;24.746;2024-03-08T04:56:58;99844.97;;;8.27;100.00
4745;BME280;2386;42.138;24.746;2024-03-08T04:59:26;99843.53;;;8.24;100.00
4745;BME280;2386;42.138;24.746;2024-03-08T05:01:52;99845.00;;;8.40;100.00
4745;BME280;2386;42.138;24.746;2024-03-08T05:04:17;99854.34;;;8.44;100.00
4745;BME280;2386;42.138;24.746;2024-03-08T05:06:43;99853.06;;;8.53;100.00
4745;BME280;2386;42.138;24.746;2024-03-08T05:09:08;99845.19;;;8.25;100.00
4745;BME280;2386;42.138;24.746;2024-03-08T05:11:41;99846.84;;;8.20;100.00
4745;BME280;2386;42.138;24.746;2024-03-08T05:14:07;99854.97;;;8.20;100.00
4745;BME280;2386;42.138;24.746;2024-03-08T05:16:33;99859.94;;;8.23;100.00
4745;BME280;2386;42.138;24.746;2024-03-08T05:18:59;99858.13;;;8.17;100.00
4745;BME280;2386;42.138;24.746;2024-03-08T05:21:24;99862.25;;;8.39;100.00
4745;BME280;2386;42.138;24.746;2024-03-08T05:23:50;99864.97;;;8.33;100.00
4745;BME280;2386;42.138;24.746;2024-03-08T05:26:16;99869.34;;;8.14;100.00
4745;BME280;2386;42.138;24.746;2024-03-08T05:28:42;99874.91;;;8.19;100.00
4745;BME280;2386;42.138;24.746;2024-03-08T05:31:08;99879.09;;;8.35;100.00
4745;BME280;2386;42.138;24.746;2024-03-08T05:33:33;99879.91;;;8.48;100.00
4745;BME280;2386;42.138;24.746;2024-03-08T05:36:02;99891.16;;;8.45;100.00
4745;BME280;2386;42.138;24.746;2024-03-08T05:38:28;99887.41;;;8.33;100.00
4745;BME280;2386;42.138;24.746;2024-03-08T05:40:54;99892.16;;;8.24;100.00
4745;BME280;2386;42.138;24.746;2024-03-08T05:43:20;99889.69;;;8.23;100.00
4745;BME280;2386;42.138;24.746;2024-03-08T05:45:46;99905.28;;;8.41;100.00
4745;BME280;2386;42.138;24.746;2024-03-08T05:48:11;99898.84;;;8.48;100.00
4745;BME280;2386;42.138;24.746;2024-03-08T05:50:38;99900.69;;;8.54;100.00
4745;BME280;2386;42.138;24.746;2024-03-08T05:53:04;99905.06;;;8.62;100.00
4745;BME280;2386;42.138;24.746;2024-03-08T05:55:32;99910.44;;;8.69;100.00
4745;BME280;2386;42.138;24.746;2024-03-08T05:58:01;99903.38;;;8.61;100.00
4745;BME280;2386;42.138;24.746;2024-03-08T06:00:26;99905.69;;;8.51;100.00
4745;BME280;2386;42.138;24.746;2024-03-08T06:02:52;99914.22;;;8.48;100.00
4745;BME280;2386;42.138;24.746;2024-03-08T06:05:17;99910.06;;;8.52;100.00
4745;BME280;2386;42.138;24.746;2024-03-08T06:07:43;99907.75;;;8.55;100.00
4745;BME280;2386;42.138;24.746;2024-03-08T06:10:09;99920.47;;;8.48;100.00
4745;BME280;2386;42.138;24.746;2024-03-08T06:12:36;99916.28;;;8.66;100.00
4745;BME280;2386;42.138;24.746;2024-03-08T06:15:09;99920.41;;;8.75;100.00
4745;BME280;2386;42.138;24.746;2024-03-08T06:17:38;99922.31;;;8.68;100.00
4745;BME280;2386;42.138;24.746;2024-03-08T06:20:03;99922.91;;;8.76;100.00
4745;BME280;2386;42.138;24.746;2024-03-08T06:22:37;99915.25;;;8.60;100.00
4745;BME280;2386;42.138;24.746;2024-03-08T06:25:02;99930.00;;;8.57;100.00
4745;BME280;2386;42.138;24.746;2024-03-08T06:27:28;99930.84;;;8.51;100.00
4745;BME280;2386;42.138;24.746;2024-03-08T06:29:53;99927.09;;;8.72;100.00
4745;BME280;2386;42.138;24.746;2024-03-08T06:32:18;99930.44;;;8.54;100.00
4745;BME280;2386;42.138;24.746;2024-03-08T06:34:44;99935.81;;;8.68;100.00
4745;BME280;2386;42.138;24.746;2024-03-08T06:37:09;99936.44;;;8.63;100.00
4745;BME280;2386;42.138;24.746;2024-03-08T06:39:34;99939.56;;;8.80;100.00
4745;BME280;2386;42.138;24.746;2024-03-08T06:42:01;99938.03;;;8.97;100.00
4745;BME280;2386;42.138;24.746;2024-03-08T06:44:26;99930.59;;;8.86;100.00
4745;BME280;2386;42.138;24.746;2024-03-08T06:46:52;99940.41;;;8.61;100.00
4745;BME280;2386;42.138;24.746;2024-03-08T06:49:17;99938.31;;;8.76;100.00
4745;BME280;2386;42.138;24.746;2024-03-08T06:51:43;99941.66;;;8.65;100.00
4745;BME280;2386;42.138;24.746;2024-03-08T06:54:08;99946.25;;;8.44;100.00
4745;BME280;2386;42.138;24.746;2024-03-08T06:56:37;99943.09;;;8.74;100.00
4745;BME280;2386;42.138;24.746;2024-03-08T06:59:03;99939.16;;;8.50;100.00
4745;BME280;2386;42.138;24.746;2024-03-08T07:01:29;99952.06;;;8.41;100.00
4745;BME280;2386;42.138;24.746;2024-03-08T07:04:00;99954.16;;;8.52;100.00
4745;BME280;2386;42.138;24.746;2024-03-08T07:06:27;99956.22;;;8.50;100.00
4745;BME280;2386;42.138;24.746;2024-03-08T07:08:53;99955.78;;;8.67;100.00
4745;BME280;2386;42.138;24.746;2024-03-08T07:11:19;99956.59;;;8.87;100.00
4745;BME280;2386;42.138;24.746;2024-03-08T07:13:45;99954.94;;;8.79;100.00
4745;BME280;2386;42.138;24.746;2024-03-08T07:16:11;99958.69;;;8.78;100.00
4745;BME280;2386;42.138;24.746;2024-03-08T07:18:37;99953.28;;;8.85;100.00
4745;BME280;2386;42.138;24.746;2024-03-08T07:21:05;99957.44;;;8.81;100.00
4745;BME280;2386;42.138;24.746;2024-03-08T07:23:30;99951.59;;;8.84;100.00
4745;BME280;2386;42.138;24.746;2024-03-08T07:26:15;99961.09;;;9.06;100.00
4745;BME280;2386;42.138;24.746;2024-03-08T07:28:41;99965.34;;;8.89;100.00
4745;BME280;2386;42.138;24.746;2024-03-08T07:31:06;99969.47;;;8.92;100.00
4745;BME280;2386;42.138;24.746;2024-03-08T07:33:37;99968.06;;;8.82;100.00
4745;BME280;2386;42.138;24.746;2024-03-08T07:36:03;99968.69;;;8.58;100.00
4745;BME280;2386;42.138;24.746;2024-03-08T07:38:30;99965.78;;;8.53;100.00
4745;BME280;2386;42.138;24.746;2024-03-08T07:40:55;99969.13;;;8.55;100.00
4745;BME280;2386;42.138;24.746;2024-03-08T07:43:22;99976.19;;;8.63;100.00
4745;BME280;2386;42.138;24.746;2024-03-08T07:45:48;99973.28;;;8.57;100.00
4745;BME280;2386;42.138;24.746;2024-03-08T07:48:13;99969.94;;;8.69;100.00
4745;BME280;2386;42.138;24.746;2024-03-08T07:50:40;99973.88;;;8.73;100.00
4745;BME280;2386;42.138;24.746;2024-03-08T07:53:06;99974.94;;;8.59;100.00
4745;BME280;2386;42.138;24.746;2024-03-08T07:55:32;99976.59;;;8.46;100.00
4745;BME280;2386;42.138;24.746;2024-03-08T07:57:58;99975.34;;;8.62;100.00
4745;BME280;2386;42.138;24.746;2024-03-08T08:00:24;99974.09;;;8.78;100.00
4745;BME280;2386;42.138;24.746;2024-03-08T08:02:49;99974.88;;;8.92;100.00
4745;BME280;2386;42.138;24.746;2024-03-08T08:05:16;99973.97;;;9.17;100.00
4745;BME280;2386;42.138;24.746;2024-03-08T08:07:46;99980.16;;;9.38;100.00
4745;BME280;2386;42.138;24.746;2024-03-08T08:10:12;99980.94;;;9.51;100.00
4745;BME280;2386;42.138;24.746;2024-03-08T08:12:47;99987.81;;;9.54;100.00
4745;BME280;2386;42.138;24.746;2024-03-08T08:15:13;99983.53;;;9.20;100.00
4745;BME280;2386;42.138;24.746;2024-03-08T08:17:46;99984.13;;;9.35;100.00
4745;BME280;2386;42.138;24.746;2024-03-08T08:20:12;99991.41;;;9.35;100.00
4745;BME280;2386;42.138;24.746;2024-03-08T08:22:41;99981.91;;;9.12;100.00
4745;BME280;2386;42.138;24.746;2024-03-08T08:25:08;99982.09;;;9.17;100.00
4745;BME280;2386;42.138;24.746;2024-03-08T08:27:34;99990.38;;;9.29;100.00
4745;BME280;2386;42.138;24.746;2024-03-08T08:30:02;99991.63;;;9.33;100.00
4745;BME280;2386;42.138;24.746;2024-03-08T08:32:28;99988.91;;;9.33;100.00
4745;BME280;2386;42.138;24.746;2024-03-08T08:34:53;99994.03;;;9.61;100.00
4745;BME280;2386;42.138;24.746;2024-03-08T08:37:18;99988.16;;;9.64;100.00
4745;BME280;2386;42.138;24.746;2024-03-08T08:39:44;99994.63;;;9.63;100.00
4745;BME280;2386;42.138;24.746;2024-03-08T08:42:11;99995.97;;;9.41;100.00
4745;BME280;2386;42.138;24.746;2024-03-08T08:44:36;99994.78;;;9.68;100.00
4745;BME280;2386;42.138;24.746;2024-03-08T08:47:02;99993.31;;;9.72;100.00
4745;BME280;2386;42.138;24.746;2024-03-08T08:49:29;99988.25;;;9.82;100.00
4745;BME280;2386;42.138;24.746;2024-03-08T08:51:55;99982.78;;;9.96;100.00
4745;BME280;2386;42.138;24.746;2024-03-08T08:54:23;99985.94;;;10.24;100.00
4745;BME280;2386;42.138;24.746;2024-03-08T08:56:50;99986.38;;;10.21;100.00
4745;BME280;2386;42.138;24.746;2024-03-08T08:59:16;99994.41;;;10.03;100.00
4745;BME280;2386;42.138;24.746;2024-03-08T09:01:45;99983.47;;;10.16;100.00
4745;BME280;2386;42.138;24.746;2024-03-08T09:04:12;99991.94;;;10.33;100.00
4745;BME280;2386;42.138;24.746;2024-03-08T09:06:37;99994.97;;;10.11;100.00
4745;BME280;2386;42.138;24.746;2024-03-08T09:09:03;99989.41;;;10.00;100.00
4745;BME280;2386;42.138;24.746;2024-03-08T09:11:30;99994.50;;;9.83;100.00
4745;BME280;2386;42.138;24.746;2024-03-08T09:13:57;99985.25;;;9.97;100.00
4745;BME280;2386;42.138;24.746;2024-03-08T09:16:22;99991.59;;;9.84;100.00
4745;BME280;2386;42.138;24.746;2024-03-08T09:18:48;99986.88;;;10.05;100.00
4745;BME280;2386;42.138;24.746;2024-03-08T09:21:13;99989.72;;;10.16;100.00
4745;BME280;2386;42.138;24.746;2024-03-08T09:23:39;99995.97;;;10.17;100.00
4745;BME280;2386;42.138;24.746;2024-03-08T09:26:06;99985.56;;;10.14;100.00
4745;BME280;2386;42.138;24.746;2024-03-08T09:28:34;99989.38;;;10.06;100.00
4745;BME280;2386;42.138;24.746;2024-03-08T09:31:01;99992.75;;;10.02;100.00
4745;BME280;2386;42.138;24.746;2024-03-08T09:33:27;99994.47;;;10.28;100.00
4745;BME280;2386;42.138;24.746;2024-03-08T09:35:54;99998.06;;;10.15;100.00
4745;BME280;2386;42.138;24.746;2024-03-08T09:38:19;99996.50;;;10.01;100.00
4745;BME280;2386;42.138;24.746;2024-03-08T09:40:45;100000.78;;;10.15;100.00
4745;BME280;2386;42.138;24.746;2024-03-08T09:43:12;99991.97;;;9.88;100.00
4745;BME280;2386;42.138;24.746;2024-03-08T09:45:37;100001.78;;;10.27;100.00
4745;BME280;2386;42.138;24.746;2024-03-08T09:48:16;100002.22;;;10.24;100.00
4745;BME280;2386;42.138;24.746;2024-03-08T09:50:44;99998.59;;;9.99;100.00
4745;BME280;2386;42.138;24.746;2024-03-08T09:53:11;100005.97;;;10.23;100.00
4745;BME280;2386;42.138;24.746;2024-03-08T09:55:37;99990.81;;;10.40;100.00
4745;BME280;2386;42.138;24.746;2024-03-08T09:58:06;99997.06;;;10.41;100.00
4745;BME280;2386;42.138;24.746;2024-03-08T10:00:52;99995.25;;;10.60;100.00
4745;BME280;2386;42.138;24.746;2024-03-08T10:03:19;99992.59;;;10.53;100.00
4745;BME280;2386;42.138;24.746;2024-03-08T10:05:45;99992.63;;;10.46;100.00
4745;BME280;2386;42.138;24.746;2024-03-08T10:08:10;99991.31;;;10.56;100.00
4745;BME280;2386;42.138;24.746;2024-03-08T10:10:36;99981.69;;;10.35;100.00
4745;BME280;2386;42.138;24.746;2024-03-08T10:13:06;99981.19;;;10.44;100.00
4745;BME280;2386;42.138;24.746;2024-03-08T10:15:33;99987.53;;;10.38;100.00
4745;BME280;2386;42.138;24.746;2024-03-08T10:17:59;99975.66;;;10.33;100.00
4745;BME280;2386;42.138;24.746;2024-03-08T10:20:24;99980.78;;;10.41;100.00
4745;BME280;2386;42.138;24.746;2024-03-08T10:22:53;99976.66;;;10.38;100.00
4745;BME280;2386;42.138;24.746;2024-03-08T10:25:19;99982.09;;;10.38;100.00
4745;BME280;2386;42.138;24.746;2024-03-08T10:27:45;99982.53;;;10.35;100.00
4745;BME280;2386;42.138;24.746;2024-03-08T10:30:14;99983.78;;;10.58;100.00
4745;BME280;2386;42.138;24.746;2024-03-08T10:32:40;99974.13;;;10.86;100.00
4745;BME280;2386;42.138;24.746;2024-03-08T10:35:09;99980.72;;;10.97;100.00
4745;BME280;2386;42.138;24.746;2024-03-08T10:37:46;99978.34;;;10.82;100.00
4745;BME280;2386;42.138;24.746;2024-03-08T10:40:16;99972.03;;;10.89;100.00
4745;BME280;2386;42.138;24.746;2024-03-08T10:42:56;99973.69;;;10.90;100.00
4745;BME280;2386;42.138;24.746;2024-03-08T10:47:55;99967.50;;;10.82;98.07
4745;BME280;2386;42.138;24.746;2024-03-08T10:50:24;99967.44;;;10.89;98.35
4745;BME280;2386;42.138;24.746;2024-03-08T10:52:52;99971.50;;;11.16;98.16
4745;BME280;2386;42.138;24.746;2024-03-08T10:55:18;99967.66;;;11.42;93.91
4745;BME280;2386;42.138;24.746;2024-03-08T10:57:45;99961.00;;;11.38;96.48
4745;BME280;2386;42.138;24.746;2024-03-08T11:00:12;99972.09;;;11.55;94.78
4745;BME280;2386;42.138;24.746;2024-03-08T11:02:38;99950.69;;;11.29;96.71
4745;BME280;2386;42.138;24.746;2024-03-08T11:05:03;99961.41;;;11.72;94.14
4745;BME280;2386;42.138;24.746;2024-03-08T11:07:33;99954.06;;;11.91;91.64
4745;BME280;2386;42.138;24.746;2024-03-08T11:10:02;99953.88;;;12.04;91.79
4745;BME280;2386;42.138;24.746;2024-03-08T11:12:36;99946.75;;;12.03;90.61
4745;BME280;2386;42.138;24.746;2024-03-08T11:15:10;99945.09;;;12.02;89.41
4745;BME280;2386;42.138;24.746;2024-03-08T11:20:09;99937.16;;;12.54;86.17
4745;BME280;2386;42.138;24.746;2024-03-08T11:22:41;99933.47;;;12.71;85.88
4745;BME280;2386;42.138;24.746;2024-03-08T11:25:31;99936.91;;;12.67;85.38
4745;BME280;2386;42.138;24.746;2024-03-08T11:33:31;99943.09;;;12.62;86.50
4745;BME280;2386;42.138;24.746;2024-03-08T11:36:03;99947.22;;;12.41;86.56
4745;BME280;2386;42.138;24.746;2024-03-08T11:38:45;99938.34;;;12.58;85.35
4745;BME280;2386;42.138;24.746;2024-03-08T11:41:17;99940.69;;;12.66;84.72
4745;BME280;2386;42.138;24.746;2024-03-08T11:43:43;99934.56;;;12.59;85.66
4745;BME280;2386;42.138;24.746;2024-03-08T11:46:10;99929.09;;;12.82;85.57
4745;BME280;2386;42.138;24.746;2024-03-08T11:48:38;99925.53;;;13.17;82.58
4745;BME280;2386;42.138;24.746;2024-03-08T11:51:04;99939.75;;;13.19;83.84
4745;BME280;2386;42.138;24.746;2024-03-08T11:53:30;99935.38;;;12.47;82.68
4745;BME280;2386;42.138;24.746;2024-03-08T11:56:12;99930.25;;;12.16;86.09
4745;BME280;2386;42.138;24.746;2024-03-08T11:58:39;99930.03;;;12.76;84.72
4745;BME280;2386;42.138;24.746;2024-03-08T12:01:10;99922.09;;;13.09;81.19
4745;BME280;2386;42.138;24.746;2024-03-08T12:03:39;99924.91;;;13.14;80.40
4745;BME280;2386;42.138;24.746;2024-03-08T12:06:05;99924.56;;;13.23;79.76
4745;BME280;2386;42.138;24.746;2024-03-08T12:08:30;99918.84;;;13.36;74.65
4745;BME280;2386;42.138;24.746;2024-03-08T12:10:57;99925.50;;;13.28;76.72
4745;BME280;2386;42.138;24.746;2024-03-08T12:13:30;99918.09;;;12.89;79.46
4745;BME280;2386;42.138;24.746;2024-03-08T12:16:00;99926.91;;;13.31;79.34
4745;BME280;2386;42.138;24.746;2024-03-08T12:18:33;99919.78;;;13.70;78.70
4745;BME280;2386;42.138;24.746;2024-03-08T12:21:07;99916.13;;;14.09;77.89
4745;BME280;2386;42.138;24.746;2024-03-08T12:23:34;99913.53;;;13.86;73.95
4745;BME280;2386;42.138;24.746;2024-03-08T12:26:25;99916.69;;;14.11;71.78
4745;BME280;2386;42.138;24.746;2024-03-08T12:28:51;99914.97;;;14.22;69.85
4745;BME280;2386;42.138;24.746;2024-03-08T12:31:17;99909.88;;;13.80;71.23
4745;BME280;2386;42.138;24.746;2024-03-08T12:33:55;99906.19;;;13.58;74.61
4745;BME280;2386;42.138;24.746;2024-03-08T12:36:24;99913.56;;;13.46;75.35
4745;BME280;2386;42.138;24.746;2024-03-08T12:38:51;99906.97;;;13.42;75.86
4745;BME280;2386;42.138;24.746;2024-03-08T12:41:20;99907.41;;;13.22;73.77
4745;BME280;2386;42.138;24.746;2024-03-08T12:43:46;99904.56;;;13.05;74.84
4745;BME280;2386;42.138;24.746;2024-03-08T12:46:17;99903.53;;;12.83;76.19
4745;BME280;2386;42.138;24.746;2024-03-08T12:48:45;99890.16;;;12.70;78.77
4745;BME280;2386;42.138;24.746;2024-03-08T12:51:13;99907.06;;;12.83;77.82
4745;BME280;2386;42.138;24.746;2024-03-08T12:53:38;99890.72;;;12.95;77.49
4745;BME280;2386;42.138;24.746;2024-03-08T12:56:06;99893.59;;;12.77;79.76
4745;BME280;2386;42.138;24.746;2024-03-08T12:58:34;99897.72;;;12.79;77.01
4745;BME280;2386;42.138;24.746;2024-03-08T13:01:02;99897.00;;;12.96;73.60
4745;BME280;2386;42.138;24.746;2024-03-08T13:03:30;99910.44;;;12.50;76.53
4745;BME280;2386;42.138;24.746;2024-03-08T13:05:56;99909.00;;;12.60;78.34
4745;BME280;2386;42.138;24.746;2024-03-08T13:08:22;99900.94;;;12.65;77.37
4745;BME280;2386;42.138;24.746;2024-03-08T13:10:50;99907.78;;;12.79;76.66
4745;BME280;2386;42.138;24.746;2024-03-08T13:13:16;99898.09;;;12.83;76.69
4745;BME280;2386;42.138;24.746;2024-03-08T13:15:42;99891.22;;;12.80;76.41
4745;BME280;2386;42.138;24.746;2024-03-08T13:18:07;99894.31;;;12.72;76.77
4745;BME280;2386;42.138;24.746;2024-03-08T13:20:35;99890.03;;;12.88;76.48